createdAt,value
2023-04-20T00:00:46.372Z,96757.63
2023-04-20T00:03:32.004Z,96765.63
2023-04-20T00:06:17.049Z,96762.06
2023-04-20T00:09:02.672Z,96762.25
2023-04-20T00:11:48.019Z,96760.31
2023-04-20T00:14:33.138Z,96754.34
2023-04-20T00:17:18.631Z,96753.50
2023-04-20T00:20:03.981Z,96743.19
2023-04-20T00:22:49.376Z,96741.25
2023-04-20T00:25:34.859Z,96748.00
2023-04-20T00:28:20.190Z,96737.84
2023-04-20T00:31:05.539Z,96737.00
2023-04-20T00:33:50.956Z,96731.44
2023-04-20T00:36:36.467Z,96727.66
2023-04-20T00:39:21.630Z,96724.25
2023-04-20T00:42:06.854Z,96722.56
2023-04-20T00:44:52.163Z,96713.03
2023-04-20T00:47:37.567Z,96720.56
2023-04-20T00:50:22.982Z,96717.31
2023-04-20T00:53:08.277Z,96712.75
2023-04-20T00:55:53.681Z,96709.78
2023-04-20T00:58:38.846Z,96711.78
2023-04-20T01:01:24.373Z,96709.97
2023-04-20T01:04:09.909Z,96704.47
2023-04-20T01:06:55.448Z,96708.41
2023-04-20T01:09:43.799Z,96705.91
2023-04-20T01:12:29.173Z,96700.56
2023-04-20T01:15:14.424Z,96707.66
2023-04-20T01:17:59.909Z,96699.72
2023-04-20T01:20:45.146Z,96692.69
2023-04-20T01:23:30.214Z,96699.16
2023-04-20T01:26:15.567Z,96695.31
2023-04-20T01:29:01.070Z,96688.03
2023-04-20T01:31:46.277Z,96685.56
2023-04-20T01:34:31.996Z,96677.78
2023-04-20T01:37:17.163Z,96679.88
2023-04-20T01:40:02.701Z,96676.34
2023-04-20T01:42:48.150Z,96676.13
2023-04-20T01:45:33.559Z,96677.09
2023-04-20T01:48:18.822Z,96672.56
2023-04-20T01:51:04.181Z,96668.94
2023-04-20T01:53:49.537Z,96675.16
2023-04-20T01:56:34.963Z,96668.50
2023-04-20T01:59:20.197Z,96665.41
2023-04-20T02:02:05.770Z,96662.38
2023-04-20T02:04:50.900Z,96659.16
2023-04-20T02:07:36.215Z,96654.59
2023-04-20T02:10:21.604Z,96657.00
2023-04-20T02:13:06.976Z,96656.88
2023-04-20T02:15:52.282Z,96651.34
2023-04-20T02:18:37.632Z,96650.81
2023-04-20T02:21:23.237Z,96650.03
2023-04-20T02:24:08.500Z,96644.53
2023-04-20T02:26:53.796Z,96652.00
2023-04-20T02:29:39.265Z,96645.91
2023-04-20T02:32:24.623Z,96644.34
2023-04-20T02:35:10.024Z,96641.28
2023-04-20T02:37:55.292Z,96641.31
2023-04-20T02:40:40.777Z,96644.84
2023-04-20T02:43:26.120Z,96643.28
2023-04-20T02:46:11.501Z,96643.03
2023-04-20T02:48:56.918Z,96632.69
2023-04-20T02:51:42.315Z,96641.47
2023-04-20T02:54:27.844Z,96647.25
2023-04-20T02:57:13.195Z,96639.41
2023-04-20T02:59:58.472Z,96640.56
2023-04-20T03:02:43.969Z,96633.31
2023-04-20T03:05:29.377Z,96631.81
2023-04-20T03:08:14.517Z,96635.69
2023-04-20T03:10:59.971Z,96640.75
2023-04-20T03:13:45.622Z,96633.66
2023-04-20T03:16:31.035Z,96625.38
2023-04-20T03:19:16.621Z,96626.09
2023-04-20T03:22:01.817Z,96618.56
2023-04-20T03:24:47.165Z,96622.59
2023-04-20T03:27:32.657Z,96619.38
2023-04-20T03:30:17.851Z,96618.81
2023-04-20T03:33:03.060Z,96619.56
2023-04-20T03:35:48.451Z,96612.19
2023-04-20T03:38:34.072Z,96615.41
2023-04-20T03:41:19.455Z,96618.06
2023-04-20T03:44:04.695Z,96614.34
2023-04-20T03:46:49.952Z,96614.44
2023-04-20T03:49:35.477Z,96615.56
2023-04-20T03:52:20.911Z,96613.94
2023-04-20T03:55:05.882Z,96610.41
2023-04-20T03:57:51.164Z,96608.81
2023-04-20T04:00:36.505Z,96606.53
2023-04-20T04:03:21.940Z,96606.47
2023-04-20T04:06:07.159Z,96610.06
2023-04-20T04:08:52.564Z,96607.13
2023-04-20T04:11:38.007Z,96616.09
2023-04-20T04:14:23.581Z,96609.19
2023-04-20T04:17:09.065Z,96606.03
2023-04-20T04:19:54.416Z,96610.31
2023-04-20T04:22:39.667Z,96611.06
2023-04-20T04:25:25.096Z,96602.81
2023-04-20T04:28:10.622Z,96606.34
2023-04-20T04:30:55.960Z,96592.66
2023-04-20T04:33:41.432Z,96600.00
2023-04-20T04:36:26.742Z,96596.53
2023-04-20T04:39:12.031Z,96602.94
2023-04-20T04:41:57.368Z,96608.44
2023-04-20T04:44:42.617Z,96610.13
2023-04-20T04:47:27.984Z,96601.47
2023-04-20T04:50:13.246Z,96601.91
2023-04-20T04:52:58.736Z,96598.44
2023-04-20T04:55:43.953Z,96597.81
2023-04-20T04:58:29.138Z,96605.94
2023-04-20T05:01:14.558Z,96607.69
2023-04-20T05:04:00.109Z,96609.91
2023-04-20T05:06:45.541Z,96602.19
2023-04-20T05:09:30.888Z,96607.63
2023-04-20T05:12:16.289Z,96611.72
2023-04-20T05:15:01.782Z,96609.38
2023-04-20T05:17:47.195Z,96609.00
2023-04-20T05:20:32.652Z,96612.91
2023-04-20T05:23:18.092Z,96603.47
2023-04-20T05:26:03.400Z,96600.22
2023-04-20T05:28:48.777Z,96605.50
2023-04-20T05:31:34.037Z,96602.25
2023-04-20T05:34:19.717Z,96606.88
2023-04-20T05:37:05.158Z,96601.63
2023-04-20T05:39:50.502Z,96605.88
2023-04-20T05:42:36.038Z,96602.16
2023-04-20T05:45:21.442Z,96596.75
2023-04-20T05:48:07.065Z,96595.19
2023-04-20T05:50:52.243Z,96600.34
2023-04-20T05:53:37.684Z,96594.59
2023-04-20T05:56:22.848Z,96595.00
2023-04-20T05:59:08.277Z,96600.16
2023-04-20T06:01:53.570Z,96597.78
2023-04-20T06:04:38.839Z,96601.72
2023-04-20T06:07:24.067Z,96595.69
2023-04-20T06:10:09.610Z,96594.22
2023-04-20T06:12:54.980Z,96594.63
2023-04-20T06:15:40.245Z,96589.41
2023-04-20T06:18:25.717Z,96592.59
2023-04-20T06:21:11.124Z,96590.78
2023-04-20T06:23:56.411Z,96590.81
2023-04-20T06:26:41.663Z,96587.34
2023-04-20T06:29:26.953Z,96586.69
2023-04-20T06:32:12.376Z,96586.19
2023-04-20T06:34:57.717Z,96585.16
2023-04-20T06:37:42.647Z,96599.41
2023-04-20T06:40:27.799Z,96592.19
2023-04-20T06:43:12.999Z,96583.06
2023-04-20T06:45:58.438Z,96583.78
2023-04-20T06:48:43.781Z,96580.28
2023-04-20T06:51:28.915Z,96586.00
2023-04-20T06:54:14.352Z,96588.78
2023-04-20T06:56:59.493Z,96583.06
2023-04-20T06:59:44.788Z,96574.44
2023-04-20T07:02:30.182Z,96566.69
2023-04-20T07:05:15.621Z,96568.03
2023-04-20T07:08:00.791Z,96560.03
2023-04-20T07:10:46.182Z,96556.78
2023-04-20T07:13:33.474Z,96565.75
2023-04-20T07:16:19.126Z,96558.69
2023-04-20T07:19:04.392Z,96558.13
2023-04-20T07:21:49.717Z,96551.88
2023-04-20T07:24:35.151Z,96556.22
2023-04-20T07:27:20.812Z,96560.44
2023-04-20T07:30:06.304Z,96557.44
2023-04-20T07:32:51.933Z,96550.47
2023-04-20T07:35:37.587Z,96554.56
2023-04-20T07:38:22.882Z,96552.41
2023-04-20T07:41:07.904Z,96560.00
2023-04-20T07:43:53.344Z,96563.63
2023-04-20T07:46:39.135Z,96561.78
2023-04-20T07:49:25.898Z,96561.47
2023-04-20T07:52:16.751Z,96569.56
2023-04-20T07:55:02.846Z,96567.56
2023-04-20T07:57:49.508Z,96571.50
2023-04-20T08:00:35.189Z,96568.22
2023-04-20T08:03:21.195Z,96562.75
2023-04-20T08:06:06.856Z,96566.34
2023-04-20T08:08:53.045Z,96566.28
2023-04-20T08:11:38.253Z,96557.59
2023-04-20T08:14:23.447Z,96561.34
2023-04-20T08:17:08.894Z,96556.69
2023-04-20T08:19:54.176Z,96545.69
2023-04-20T08:22:39.432Z,96553.97
2023-04-20T08:25:25.436Z,96558.53
2023-04-20T08:28:19.204Z,96566.25
2023-04-20T08:31:09.517Z,96570.63
2023-04-20T08:33:54.873Z,96574.22
2023-04-20T08:36:40.277Z,96582.44
2023-04-20T08:39:25.374Z,96581.97
2023-04-20T08:42:10.747Z,96585.00
2023-04-20T08:44:56.111Z,96581.47
2023-04-20T08:47:41.581Z,96576.44
2023-04-20T08:50:26.938Z,96580.50
2023-04-20T08:53:12.216Z,96580.66
2023-04-20T08:55:57.644Z,96583.69
2023-04-20T08:58:42.619Z,96575.50
2023-04-20T09:01:34.705Z,96579.69
2023-04-20T09:04:21.243Z,96582.06
2023-04-20T09:07:09.628Z,96583.69
2023-04-20T09:09:55.023Z,96584.44
2023-04-20T09:12:40.440Z,96590.03
2023-04-20T09:15:26.258Z,96594.03
2023-04-20T09:18:11.611Z,96591.75
2023-04-20T09:20:56.917Z,96586.91
2023-04-20T09:23:42.406Z,96591.25
2023-04-20T09:26:27.746Z,96587.25
2023-04-20T09:29:13.194Z,96582.88
2023-04-20T09:31:58.526Z,96593.19
2023-04-20T09:34:43.872Z,96564.19
2023-04-20T09:37:29.324Z,96568.19
2023-04-20T09:40:14.508Z,96573.69
2023-04-20T09:43:00.008Z,96574.44
2023-04-20T09:45:44.948Z,96570.66
2023-04-20T09:48:32.039Z,96570.91
2023-04-20T09:51:17.727Z,96562.06
2023-04-20T09:54:03.195Z,96564.38
2023-04-20T09:56:48.615Z,96566.41
2023-04-20T09:59:34.051Z,96561.75
2023-04-20T10:02:19.760Z,96568.75
2023-04-20T10:05:04.880Z,96589.56
2023-04-20T10:07:50.081Z,96587.16
2023-04-20T10:10:35.554Z,96578.69
2023-04-20T10:13:20.921Z,96591.38
2023-04-20T10:16:05.991Z,96584.84
2023-04-20T10:18:52.174Z,96589.88
2023-04-20T10:21:37.161Z,96598.00
2023-04-20T10:24:22.832Z,96595.53
2023-04-20T10:27:07.795Z,96592.59
2023-04-20T10:29:52.766Z,96594.53
2023-04-20T10:32:38.675Z,96590.81
2023-04-20T10:35:23.943Z,96585.25
2023-04-20T10:38:09.354Z,96584.78
2023-04-20T10:40:54.665Z,96585.88
2023-04-20T10:43:40.202Z,96588.09
2023-04-20T10:46:25.467Z,96585.31
2023-04-20T10:49:10.555Z,96591.31
2023-04-20T10:51:55.641Z,96586.69
2023-04-20T10:54:41.116Z,96580.38
2023-04-20T10:57:26.412Z,96565.47
2023-04-20T11:00:11.857Z,96571.53
2023-04-20T11:02:57.634Z,96568.94
2023-04-20T11:05:42.665Z,96561.03
2023-04-20T11:08:27.993Z,96565.44
2023-04-20T11:11:13.365Z,96569.41
2023-04-20T11:13:58.788Z,96570.69
2023-04-20T11:16:49.578Z,96574.78
2023-04-20T11:19:35.782Z,96574.69
2023-04-20T11:22:21.214Z,96570.75
2023-04-20T11:25:06.665Z,96575.59
2023-04-20T11:27:51.650Z,96576.63
2023-04-20T11:30:37.266Z,96569.06
2023-04-20T11:33:22.572Z,96573.47
2023-04-20T11:36:09.437Z,96567.78
2023-04-20T11:38:55.412Z,96568.66
2023-04-20T11:41:40.695Z,96556.78
2023-04-20T11:44:26.297Z,96559.00
2023-04-20T11:47:14.784Z,96553.78
2023-04-20T11:50:00.013Z,96554.75
2023-04-20T11:52:45.452Z,96559.75
2023-04-20T11:55:30.392Z,96567.97
2023-04-20T11:58:17.023Z,96560.69
2023-04-20T12:01:02.296Z,96568.59
2023-04-20T12:03:48.236Z,96563.09
2023-04-20T12:06:33.594Z,96562.22
2023-04-20T12:09:19.065Z,96563.44
2023-04-20T12:12:04.323Z,96572.81
2023-04-20T12:14:49.817Z,96575.97
2023-04-20T12:17:34.965Z,96577.72
2023-04-20T12:20:20.375Z,96577.00
2023-04-20T12:23:05.666Z,96578.44
2023-04-20T12:25:50.833Z,96579.94
2023-04-20T12:28:35.807Z,96578.59
2023-04-20T12:31:21.006Z,96578.72
2023-04-20T12:34:06.462Z,96577.34
2023-04-20T12:36:51.770Z,96582.06
2023-04-20T12:39:37.216Z,96587.75
2023-04-20T12:42:22.675Z,96582.06
2023-04-20T12:45:07.901Z,96592.38
2023-04-20T12:47:55.781Z,96601.28
2023-04-20T12:50:42.134Z,96606.09
2023-04-20T12:53:27.872Z,96600.66
2023-04-20T12:56:13.259Z,96605.31
2023-04-20T12:58:58.464Z,96602.72
2023-04-20T13:01:43.576Z,96609.56
2023-04-20T13:04:28.988Z,96612.75
2023-04-20T13:07:14.368Z,96614.34
2023-04-20T13:09:59.796Z,96621.59
2023-04-20T13:12:45.211Z,96617.22
2023-04-20T13:15:39.092Z,96623.78
2023-04-20T13:18:24.881Z,96628.00
2023-04-20T13:21:10.193Z,96624.88
2023-04-20T13:23:56.988Z,96623.22
2023-04-20T13:26:42.682Z,96620.72
2023-04-20T13:29:27.993Z,96628.41
2023-04-20T13:32:13.450Z,96631.72
2023-04-20T13:34:58.896Z,96635.19
2023-04-20T13:37:44.264Z,96642.34
2023-04-20T13:40:29.728Z,96641.03
2023-04-20T13:43:14.929Z,96644.34
2023-04-20T13:46:00.257Z,96652.00
2023-04-20T13:48:45.539Z,96636.66
2023-04-20T13:51:31.050Z,96643.75
2023-04-20T13:54:16.545Z,96639.88
2023-04-20T13:57:01.743Z,96639.75
2023-04-20T13:59:47.158Z,96640.13
2023-04-20T14:02:32.678Z,96640.31
2023-04-20T14:05:18.036Z,96640.28
2023-04-20T14:08:03.106Z,96634.31
2023-04-20T14:10:48.480Z,96629.75
2023-04-20T14:13:33.601Z,96626.91
2023-04-20T14:16:18.812Z,96635.19
2023-04-20T14:19:04.103Z,96634.56
2023-04-20T14:21:50.096Z,96630.88
2023-04-20T14:24:35.510Z,96634.06
2023-04-20T14:27:20.921Z,96631.72
2023-04-20T14:30:06.202Z,96636.69
2023-04-20T14:32:51.588Z,96630.72
2023-04-20T14:35:36.818Z,96632.53
2023-04-20T14:38:22.345Z,96634.25
2023-04-20T14:41:07.617Z,96625.00
2023-04-20T14:43:52.845Z,96633.63
2023-04-20T14:46:39.004Z,96630.00
2023-04-20T14:49:25.329Z,96635.25
2023-04-20T14:52:10.603Z,96631.06
2023-04-20T14:54:56.032Z,96619.56
2023-04-20T14:57:41.226Z,96619.00
2023-04-20T15:00:29.555Z,96615.19
2023-04-20T15:03:14.618Z,96624.97
2023-04-20T15:06:00.128Z,96618.25
2023-04-20T15:08:45.467Z,96620.50
2023-04-20T15:11:31.080Z,96625.03
2023-04-20T15:14:16.585Z,96623.25
2023-04-20T15:17:02.371Z,96622.13
2023-04-20T15:19:47.701Z,96624.22
2023-04-20T15:22:33.139Z,96620.91
2023-04-20T15:25:18.517Z,96628.59
2023-04-20T15:28:04.000Z,96636.75
2023-04-20T15:30:49.311Z,96629.91
2023-04-20T15:33:34.722Z,96627.03
2023-04-20T15:36:20.065Z,96631.53
2023-04-20T15:39:05.394Z,96627.41
2023-04-20T15:41:50.940Z,96627.16
2023-04-20T15:44:36.154Z,96630.00
2023-04-20T15:47:23.059Z,96624.97
2023-04-20T15:50:08.286Z,96630.81
2023-04-20T15:52:53.594Z,96626.72
2023-04-20T15:55:39.036Z,96631.91
2023-04-20T15:58:24.248Z,96634.94
2023-04-20T16:01:09.657Z,96633.19
2023-04-20T16:03:55.277Z,96631.66
2023-04-20T16:06:40.499Z,96636.47
2023-04-20T16:09:25.970Z,96631.72
2023-04-20T16:12:11.029Z,96638.56
2023-04-20T16:14:56.301Z,96638.03
2023-04-20T16:17:41.662Z,96631.84
2023-04-20T16:20:27.143Z,96594.63
2023-04-20T16:23:13.161Z,96592.34
2023-04-20T16:25:58.666Z,96585.72
2023-04-20T16:28:44.108Z,96586.59
2023-04-20T16:31:29.570Z,96594.50
2023-04-20T16:34:14.901Z,96590.63
2023-04-20T16:36:59.928Z,96630.13
2023-04-20T16:39:45.254Z,96625.13
2023-04-20T16:42:30.314Z,96625.34
2023-04-20T16:45:15.779Z,96619.38
2023-04-20T16:48:01.288Z,96619.69
2023-04-20T16:50:46.274Z,96623.72
2023-04-20T16:53:31.580Z,96623.25
2023-04-20T16:56:17.041Z,96620.72
2023-04-20T16:59:02.367Z,96618.66
2023-04-20T17:01:47.685Z,96619.41
2023-04-20T17:04:33.157Z,96613.78
2023-04-20T17:07:18.337Z,96611.19
2023-04-20T17:10:03.635Z,96613.59
2023-04-20T17:12:48.976Z,96616.00
2023-04-20T17:15:34.199Z,96619.66
2023-04-20T17:18:19.350Z,96619.34
2023-04-20T17:21:04.764Z,96614.28
2023-04-20T17:23:50.135Z,96621.56
2023-04-20T17:26:35.527Z,96617.31
2023-04-20T17:29:21.042Z,96611.03
2023-04-20T17:32:06.320Z,96624.91
2023-04-20T17:34:51.969Z,96619.78
2023-04-20T17:37:37.182Z,96619.22
2023-04-20T17:40:22.610Z,96629.09
2023-04-20T17:43:08.022Z,96621.19
2023-04-20T17:45:53.167Z,96630.13
2023-04-20T17:48:38.837Z,96621.22
2023-04-20T17:51:24.465Z,96626.97
2023-04-20T17:54:09.844Z,96630.94
2023-04-20T17:56:55.256Z,96635.03
2023-04-20T17:59:40.812Z,96628.59
2023-04-20T18:02:26.285Z,96634.31
2023-04-20T18:05:11.745Z,96633.88
2023-04-20T18:07:57.246Z,96624.75
2023-04-20T18:10:42.490Z,96628.41
2023-04-20T18:13:27.868Z,96636.00
2023-04-20T18:16:13.275Z,96633.38
2023-04-20T18:18:58.492Z,96630.50
2023-04-20T18:21:43.901Z,96629.16
2023-04-20T18:24:29.110Z,96626.28
2023-04-20T18:27:14.332Z,96629.91
2023-04-20T18:29:59.661Z,96631.94
2023-04-20T18:32:45.088Z,96630.31
2023-04-20T18:35:30.438Z,96628.47
2023-04-20T18:38:15.713Z,96624.97
2023-04-20T18:41:01.186Z,96626.50
2023-04-20T18:43:46.514Z,96629.50
2023-04-20T18:46:35.106Z,96622.63
2023-04-20T18:49:20.536Z,96625.53
2023-04-20T18:52:05.800Z,96624.00
2023-04-20T18:54:51.097Z,96624.19
2023-04-20T18:57:36.218Z,96627.94
2023-04-20T19:00:21.533Z,96629.50
2023-04-20T19:03:06.953Z,96629.31
2023-04-20T19:05:52.260Z,96629.56
2023-04-20T19:08:37.674Z,96631.75
2023-04-20T19:11:22.658Z,96638.16
2023-04-20T19:14:07.938Z,96635.56
2023-04-20T19:16:53.456Z,96638.72
2023-04-20T19:19:49.732Z,96635.41
2023-04-20T19:22:34.719Z,96647.53
2023-04-20T19:25:19.598Z,96639.03
2023-04-20T19:28:04.824Z,96648.25
2023-04-20T19:30:50.071Z,96644.06
2023-04-20T19:33:35.306Z,96653.78
2023-04-20T19:36:20.401Z,96647.63
2023-04-20T19:39:05.869Z,96653.50
2023-04-20T19:41:51.265Z,96662.28
2023-04-20T19:44:36.478Z,96651.09
2023-04-20T19:47:22.001Z,96653.41
2023-04-20T19:50:07.371Z,96652.47
2023-04-20T19:52:52.241Z,96651.31
2023-04-20T19:55:37.552Z,96648.28
2023-04-20T19:58:22.974Z,96661.31
2023-04-20T20:01:08.441Z,96656.09
2023-04-20T20:03:54.081Z,96658.06
2023-04-20T20:06:39.216Z,96655.28
2023-04-20T20:09:25.744Z,96658.66
2023-04-20T20:12:10.951Z,96647.78
2023-04-20T20:14:56.051Z,96651.53
2023-04-20T20:17:41.652Z,96651.31
2023-04-20T20:20:27.050Z,96642.75
2023-04-20T20:23:12.183Z,96638.13
2023-04-20T20:25:57.351Z,96640.13
2023-04-20T20:28:42.402Z,96648.19
2023-04-20T20:31:27.664Z,96642.75
2023-04-20T20:34:12.768Z,96641.91
2023-04-20T20:36:57.904Z,96641.09
2023-04-20T20:39:43.370Z,96640.94
2023-04-20T20:42:28.616Z,96642.44
2023-04-20T20:45:14.040Z,96645.69
2023-04-20T20:47:59.527Z,96641.25
2023-04-20T20:50:44.770Z,96657.19
2023-04-20T20:53:30.017Z,96657.25
2023-04-20T20:56:15.436Z,96657.75
2023-04-20T20:59:00.989Z,96651.09
2023-04-20T21:01:46.462Z,96660.78
2023-04-20T21:04:31.691Z,96655.63
2023-04-20T21:07:17.173Z,96659.16
2023-04-20T21:10:02.487Z,96655.69
2023-04-20T21:12:47.995Z,96655.69
2023-04-20T21:15:33.301Z,96664.34
2023-04-20T21:18:18.852Z,96666.91
2023-04-20T21:21:04.265Z,96662.13
2023-04-20T21:23:49.721Z,96662.47
2023-04-20T21:26:35.082Z,96662.03
2023-04-20T21:29:20.698Z,96656.44
2023-04-20T21:32:05.984Z,96657.91
2023-04-20T21:34:51.278Z,96646.97
2023-04-20T21:37:36.613Z,96652.41
2023-04-20T21:40:22.037Z,96660.50
2023-04-20T21:43:07.441Z,96652.06
2023-04-20T21:45:53.150Z,96656.19
2023-04-20T21:48:38.115Z,96658.41
2023-04-20T21:51:23.596Z,96655.75
2023-04-20T21:54:08.689Z,96659.91
2023-04-20T21:56:54.140Z,96651.50
2023-04-20T21:59:39.501Z,96651.25
2023-04-20T22:02:24.820Z,96646.38
2023-04-20T22:05:09.741Z,96655.34
2023-04-20T22:07:55.016Z,96651.59
2023-04-20T22:10:40.436Z,96655.28
2023-04-20T22:13:25.885Z,96651.91
2023-04-20T22:16:11.297Z,96654.59
2023-04-20T22:18:56.726Z,96659.25
2023-04-20T22:21:42.159Z,96660.13
2023-04-20T22:24:27.221Z,96658.75
2023-04-20T22:27:12.547Z,96659.31
2023-04-20T22:29:57.837Z,96671.91
2023-04-20T22:32:43.429Z,96668.38
2023-04-20T22:35:28.391Z,96666.41
2023-04-20T22:38:13.846Z,96673.16
2023-04-20T22:40:58.962Z,96667.09
2023-04-20T22:43:44.393Z,96665.28
2023-04-20T22:46:29.790Z,96664.59
2023-04-20T22:49:15.246Z,96667.72
2023-04-20T22:52:00.586Z,96666.16
2023-04-20T22:54:45.898Z,96665.19
2023-04-20T22:57:31.443Z,96656.50
2023-04-20T23:00:16.526Z,96657.03
2023-04-20T23:03:02.064Z,96660.16
2023-04-20T23:05:47.598Z,96652.66
2023-04-20T23:08:32.630Z,96654.63
2023-04-20T23:11:18.088Z,96645.72
2023-04-20T23:14:03.532Z,96639.13
2023-04-20T23:16:49.111Z,96649.44
2023-04-20T23:19:34.420Z,96641.78
2023-04-20T23:22:19.738Z,96646.38
2023-04-20T23:25:05.254Z,96636.72
2023-04-20T23:27:50.380Z,96644.19
2023-04-20T23:30:35.632Z,96641.34
2023-04-20T23:33:20.987Z,96648.78
2023-04-20T23:36:06.426Z,96650.31
2023-04-20T23:38:51.814Z,96645.78
2023-04-20T23:41:37.178Z,96645.47
2023-04-20T23:44:22.580Z,96648.13
2023-04-20T23:47:07.754Z,96643.41
2023-04-20T23:49:52.991Z,96642.53
2023-04-20T23:52:37.970Z,96644.63
2023-04-20T23:55:22.979Z,96637.31
2023-04-20T23:58:08.234Z,96633.91
